Rechercher aéroport 
image banner adimage banner adimage banner ad
image banner ad

27CL - Sopwith Farm

Situé à Pleasant Grove, United States

ICAO - 27CL, IATA -

Données fournies par Airmate  

Information générale

Coordonnées: N38°44'50" W121°34'22"
Élévation : 20 feet MSL.
Variation magnétique : 16° East
Voir autres Aéroports à California

Données opérationnelles

Special qualification required
Heure actuelle UTC:
Heure actuelle locale:
Météo à : KSMF - Sacramento Intl ( 6 km )
METAR: KSMF 270353Z 17011KT 10SM SCT190 24/06 A2985 RMK AO2 SLP106 T02440061
TAF: KSMF 270218Z 2702/2724 20015KT P6SM SCT200 FM270400 16012KT P6SM OVC150 FM270700 15010KT P6SM VCSH OVC150 FM271300 17004KT P6SM OVC100 FM272000 32007KT P6SM SCT200
Voir NOTAMs / SUP AIP / TFR affectant cet aéroport [VIEW]
Fréquences de communication: [VIEW]

Pistes:

Identifiant RWYQFULongueur (ft)Largeur (ft)SurfaceLDA (ft)
16200060OTHER
34200060OTHER

Coordonnées de l'aéroport

Adresse: Pleasant Grove United States

Vue satellite de 27CL